sensor_id;sensor_type;location;lat;lon;timestamp;P1;durP1;ratioP1;P2;durP2;ratioP2
35056;SDS011;21241;51.828;19.574;2022-08-03T00:02:17;7.40;;;6.70;;
35056;SDS011;21241;51.828;19.574;2022-08-03T00:04:45;7.90;;;7.10;;
35056;SDS011;21241;51.828;19.574;2022-08-03T00:07:13;8.60;;;7.40;;
35056;SDS011;21241;51.828;19.574;2022-08-03T00:09:41;7.60;;;6.60;;
35056;SDS011;21241;51.828;19.574;2022-08-03T00:12:09;7.70;;;6.50;;
35056;SDS011;21241;51.828;19.574;2022-08-03T00:14:37;7.40;;;6.70;;
35056;SDS011;21241;51.828;19.574;2022-08-03T00:17:05;7.30;;;6.60;;
35056;SDS011;21241;51.828;19.574;2022-08-03T00:19:32;7.50;;;6.70;;
35056;SDS011;21241;51.828;19.574;2022-08-03T00:22:00;7.40;;;6.80;;
35056;SDS011;21241;51.828;19.574;2022-08-03T00:24:28;6.40;;;5.90;;
35056;SDS011;21241;51.828;19.574;2022-08-03T00:26:57;6.20;;;5.60;;
35056;SDS011;21241;51.828;19.574;2022-08-03T00:29:25;6.10;;;5.50;;
35056;SDS011;21241;51.828;19.574;2022-08-03T00:31:52;7.60;;;5.20;;
35056;SDS011;21241;51.828;19.574;2022-08-03T00:34:27;5.90;;;5.40;;
35056;SDS011;21241;51.828;19.574;2022-08-03T00:37:13;5.60;;;5.00;;
35056;SDS011;21241;51.828;19.574;2022-08-03T00:39:42;5.90;;;5.30;;
35056;SDS011;21241;51.828;19.574;2022-08-03T00:42:12;5.40;;;5.00;;
35056;SDS011;21241;51.828;19.574;2022-08-03T00:44:42;7.90;;;6.20;;
35056;SDS011;21241;51.828;19.574;2022-08-03T00:47:11;16.80;;;6.20;;
35056;SDS011;21241;51.828;19.574;2022-08-03T00:49:39;8.70;;;6.00;;
35056;SDS011;21241;51.828;19.574;2022-08-03T00:52:08;5.40;;;4.90;;
35056;SDS011;21241;51.828;19.574;2022-08-03T00:54:37;6.60;;;5.00;;
35056;SDS011;21241;51.828;19.574;2022-08-03T00:57:05;10.60;;;6.00;;
35056;SDS011;21241;51.828;19.574;2022-08-03T00:59:33;10.40;;;6.50;;
35056;SDS011;21241;51.828;19.574;2022-08-03T01:02:01;7.80;;;5.40;;
35056;SDS011;21241;51.828;19.574;2022-08-03T01:04:29;5.20;;;4.70;;
35056;SDS011;21241;51.828;19.574;2022-08-03T01:09:37;5.80;;;4.70;;
35056;SDS011;21241;51.828;19.574;2022-08-03T01:12:16;6.20;;;5.00;;
35056;SDS011;21241;51.828;19.574;2022-08-03T01:18:11;6.80;;;5.30;;
35056;SDS011;21241;51.828;19.574;2022-08-03T01:20:46;9.10;;;5.00;;
35056;SDS011;21241;51.828;19.574;2022-08-03T01:26:12;5.50;;;4.80;;
35056;SDS011;21241;51.828;19.574;2022-08-03T01:31:42;9.40;;;4.30;;
35056;SDS011;21241;51.828;19.574;2022-08-03T01:34:35;5.40;;;4.50;;
35056;SDS011;21241;51.828;19.574;2022-08-03T01:37:06;7.10;;;4.90;;
35056;SDS011;21241;51.828;19.574;2022-08-03T01:39:35;6.40;;;5.20;;
35056;SDS011;21241;51.828;19.574;2022-08-03T01:42:05;6.40;;;4.90;;
35056;SDS011;21241;51.828;19.574;2022-08-03T01:44:37;7.00;;;5.00;;
35056;SDS011;21241;51.828;19.574;2022-08-03T01:47:08;5.20;;;4.70;;
35056;SDS011;21241;51.828;19.574;2022-08-03T01:49:37;7.30;;;4.70;;
35056;SDS011;21241;51.828;19.574;2022-08-03T01:52:07;5.10;;;4.70;;
35056;SDS011;21241;51.828;19.574;2022-08-03T01:54:35;5.80;;;5.10;;
35056;SDS011;21241;51.828;19.574;2022-08-03T01:57:07;6.60;;;4.40;;
35056;SDS011;21241;51.828;19.574;2022-08-03T01:59:36;6.80;;;5.00;;
35056;SDS011;21241;51.828;19.574;2022-08-03T02:02:05;8.50;;;5.60;;
35056;SDS011;21241;51.828;19.574;2022-08-03T02:04:55;6.00;;;4.70;;
35056;SDS011;21241;51.828;19.574;2022-08-03T02:07:24;9.80;;;5.30;;
35056;SDS011;21241;51.828;19.574;2022-08-03T02:09:53;7.00;;;5.10;;
35056;SDS011;21241;51.828;19.574;2022-08-03T02:12:23;8.70;;;4.90;;
35056;SDS011;21241;51.828;19.574;2022-08-03T02:14:53;6.60;;;5.30;;
35056;SDS011;21241;51.828;19.574;2022-08-03T02:17:23;6.40;;;5.10;;
35056;SDS011;21241;51.828;19.574;2022-08-03T02:20:07;5.30;;;4.60;;
35056;SDS011;21241;51.828;19.574;2022-08-03T02:22:36;6.60;;;5.00;;
35056;SDS011;21241;51.828;19.574;2022-08-03T02:25:07;5.50;;;4.90;;
35056;SDS011;21241;51.828;19.574;2022-08-03T02:27:39;5.20;;;4.70;;
35056;SDS011;21241;51.828;19.574;2022-08-03T02:30:13;5.20;;;4.80;;
35056;SDS011;21241;51.828;19.574;2022-08-03T02:32:42;6.50;;;4.90;;
35056;SDS011;21241;51.828;19.574;2022-08-03T02:35:12;6.40;;;4.60;;
35056;SDS011;21241;51.828;19.574;2022-08-03T02:37:42;5.40;;;5.00;;
35056;SDS011;21241;51.828;19.574;2022-08-03T02:40:16;4.90;;;4.50;;
35056;SDS011;21241;51.828;19.574;2022-08-03T02:42:46;6.20;;;5.60;;
35056;SDS011;21241;51.828;19.574;2022-08-03T02:45:16;4.40;;;4.10;;
35056;SDS011;21241;51.828;19.574;2022-08-03T02:47:44;7.50;;;5.40;;
35056;SDS011;21241;51.828;19.574;2022-08-03T02:50:21;5.50;;;4.90;;
35056;SDS011;21241;51.828;19.574;2022-08-03T02:52:50;6.70;;;4.30;;
35056;SDS011;21241;51.828;19.574;2022-08-03T02:55:19;7.50;;;4.80;;
35056;SDS011;21241;51.828;19.574;2022-08-03T02:57:49;5.10;;;4.60;;
35056;SDS011;21241;51.828;19.574;2022-08-03T03:00:18;5.60;;;4.80;;
35056;SDS011;21241;51.828;19.574;2022-08-03T03:02:56;9.10;;;5.20;;
35056;SDS011;21241;51.828;19.574;2022-08-03T03:05:25;7.50;;;5.00;;
35056;SDS011;21241;51.828;19.574;2022-08-03T03:08:14;5.70;;;4.70;;
35056;SDS011;21241;51.828;19.574;2022-08-03T03:10:52;6.90;;;5.10;;
35056;SDS011;21241;51.828;19.574;2022-08-03T03:13:22;6.60;;;4.90;;
35056;SDS011;21241;51.828;19.574;2022-08-03T03:15:51;9.40;;;5.00;;
35056;SDS011;21241;51.828;19.574;2022-08-03T03:18:19;7.00;;;4.40;;
35056;SDS011;21241;51.828;19.574;2022-08-03T03:20:50;4.90;;;4.30;;
35056;SDS011;21241;51.828;19.574;2022-08-03T03:23:20;5.70;;;5.20;;
35056;SDS011;21241;51.828;19.574;2022-08-03T03:25:49;7.90;;;5.70;;
35056;SDS011;21241;51.828;19.574;2022-08-03T03:28:17;8.40;;;6.00;;
35056;SDS011;21241;51.828;19.574;2022-08-03T03:30:45;7.00;;;6.30;;
35056;SDS011;21241;51.828;19.574;2022-08-03T03:33:22;6.60;;;5.90;;
35056;SDS011;21241;51.828;19.574;2022-08-03T03:35:51;6.40;;;5.90;;
35056;SDS011;21241;51.828;19.574;2022-08-03T03:38:19;8.00;;;6.80;;
35056;SDS011;21241;51.828;19.574;2022-08-03T03:40:46;8.20;;;7.40;;
35056;SDS011;21241;51.828;19.574;2022-08-03T03:43:15;7.60;;;6.90;;
35056;SDS011;21241;51.828;19.574;2022-08-03T03:45:45;8.20;;;6.80;;
35056;SDS011;21241;51.828;19.574;2022-08-03T03:48:14;9.40;;;8.60;;
35056;SDS011;21241;51.828;19.574;2022-08-03T03:50:42;11.80;;;10.00;;
35056;SDS011;21241;51.828;19.574;2022-08-03T03:53:10;11.60;;;10.50;;
35056;SDS011;21241;51.828;19.574;2022-08-03T03:55:39;11.50;;;10.50;;
35056;SDS011;21241;51.828;19.574;2022-08-03T03:58:27;11.60;;;10.50;;
35056;SDS011;21241;51.828;19.574;2022-08-03T04:00:54;11.00;;;10.10;;
35056;SDS011;21241;51.828;19.574;2022-08-03T04:03:22;17.60;;;16.10;;
35056;SDS011;21241;51.828;19.574;2022-08-03T04:05:50;14.50;;;13.40;;
35056;SDS011;21241;51.828;19.574;2022-08-03T04:08:36;12.00;;;11.10;;
35056;SDS011;21241;51.828;19.574;2022-08-03T04:11:23;14.00;;;12.60;;
35056;SDS011;21241;51.828;19.574;2022-08-03T04:14:05;12.50;;;11.60;;
35056;SDS011;21241;51.828;19.574;2022-08-03T04:16:40;15.60;;;13.50;;
35056;SDS011;21241;51.828;19.574;2022-08-03T04:19:11;14.30;;;13.20;;
35056;SDS011;21241;51.828;19.574;2022-08-03T04:21:49;15.90;;;14.70;;
35056;SDS011;21241;51.828;19.574;2022-08-03T04:24:24;14.90;;;13.80;;
35056;SDS011;21241;51.828;19.574;2022-08-03T04:26:54;15.70;;;14.30;;
35056;SDS011;21241;51.828;19.574;2022-08-03T04:29:23;17.70;;;16.10;;
35056;SDS011;21241;51.828;19.574;2022-08-03T04:31:53;15.40;;;14.10;;
35056;SDS011;21241;51.828;19.574;2022-08-03T04:34:21;15.90;;;14.60;;
35056;SDS011;21241;51.828;19.574;2022-08-03T04:36:48;13.80;;;12.80;;
35056;SDS011;21241;51.828;19.574;2022-08-03T04:39:24;14.30;;;12.90;;
35056;SDS011;21241;51.828;19.574;2022-08-03T04:41:54;16.40;;;15.00;;
35056;SDS011;21241;51.828;19.574;2022-08-03T04:44:35;15.60;;;14.50;;
35056;SDS011;21241;51.828;19.574;2022-08-03T04:47:05;16.10;;;14.90;;
35056;SDS011;21241;51.828;19.574;2022-08-03T04:49:36;14.10;;;13.20;;
35056;SDS011;21241;51.828;19.574;2022-08-03T04:52:06;13.90;;;12.90;;
35056;SDS011;21241;51.828;19.574;2022-08-03T04:54:40;14.50;;;13.40;;
35056;SDS011;21241;51.828;19.574;2022-08-03T04:57:17;15.00;;;14.00;;
35056;SDS011;21241;51.828;19.574;2022-08-03T04:59:49;14.40;;;13.50;;
35056;SDS011;21241;51.828;19.574;2022-08-03T05:02:29;15.00;;;14.10;;
35056;SDS011;21241;51.828;19.574;2022-08-03T05:04:58;15.00;;;13.90;;
35056;SDS011;21241;51.828;19.574;2022-08-03T05:07:26;15.60;;;14.50;;
35056;SDS011;21241;51.828;19.574;2022-08-03T05:10:06;15.20;;;14.10;;
35056;SDS011;21241;51.828;19.574;2022-08-03T05:12:44;15.80;;;14.80;;
35056;SDS011;21241;51.828;19.574;2022-08-03T05:15:16;15.40;;;14.00;;
35056;SDS011;21241;51.828;19.574;2022-08-03T05:17:44;14.00;;;13.00;;
35056;SDS011;21241;51.828;19.574;2022-08-03T05:20:12;14.40;;;13.40;;
35056;SDS011;21241;51.828;19.574;2022-08-03T05:22:45;13.80;;;12.70;;
35056;SDS011;21241;51.828;19.574;2022-08-03T05:25:14;13.20;;;12.30;;
35056;SDS011;21241;51.828;19.574;2022-08-03T05:27:46;12.00;;;11.20;;
35056;SDS011;21241;51.828;19.574;2022-08-03T05:30:14;12.20;;;11.50;;
35056;SDS011;21241;51.828;19.574;2022-08-03T05:33:03;11.00;;;10.30;;
35056;SDS011;21241;51.828;19.574;2022-08-03T05:35:32;11.60;;;10.70;;
35056;SDS011;21241;51.828;19.574;2022-08-03T05:38:31;11.70;;;10.80;;
35056;SDS011;21241;51.828;19.574;2022-08-03T05:42:08;14.10;;;12.90;;
35056;SDS011;21241;51.828;19.574;2022-08-03T05:44:52;12.70;;;11.90;;
35056;SDS011;21241;51.828;19.574;2022-08-03T05:47:30;12.40;;;11.50;;
35056;SDS011;21241;51.828;19.574;2022-08-03T05:49:58;12.20;;;11.30;;
35056;SDS011;21241;51.828;19.574;2022-08-03T05:52:31;12.40;;;11.60;;
35056;SDS011;21241;51.828;19.574;2022-08-03T05:54:59;12.20;;;11.30;;
35056;SDS011;21241;51.828;19.574;2022-08-03T05:57:29;12.10;;;11.10;;
35056;SDS011;21241;51.828;19.574;2022-08-03T05:59:57;11.20;;;10.50;;
35056;SDS011;21241;51.828;19.574;2022-08-03T06:02:26;11.90;;;11.10;;
35056;SDS011;21241;51.828;19.574;2022-08-03T06:04:54;12.60;;;11.80;;
35056;SDS011;21241;51.828;19.574;2022-08-03T06:07:22;11.10;;;10.50;;
35056;SDS011;21241;51.828;19.574;2022-08-03T06:09:50;11.90;;;11.20;;
35056;SDS011;21241;51.828;19.574;2022-08-03T06:12:53;11.80;;;11.00;;
35056;SDS011;21241;51.828;19.574;2022-08-03T06:15:21;11.30;;;10.60;;
35056;SDS011;21241;51.828;19.574;2022-08-03T06:17:52;11.10;;;10.30;;
35056;SDS011;21241;51.828;19.574;2022-08-03T06:20:29;9.90;;;9.10;;
35056;SDS011;21241;51.828;19.574;2022-08-03T06:22:57;10.50;;;9.90;;
35056;SDS011;21241;51.828;19.574;2022-08-03T06:25:27;8.90;;;8.30;;
35056;SDS011;21241;51.828;19.574;2022-08-03T06:27:55;8.30;;;7.70;;
35056;SDS011;21241;51.828;19.574;2022-08-03T06:30:23;7.30;;;6.80;;
35056;SDS011;21241;51.828;19.574;2022-08-03T06:32:51;8.10;;;7.40;;
35056;SDS011;21241;51.828;19.574;2022-08-03T06:35:19;7.30;;;6.70;;
35056;SDS011;21241;51.828;19.574;2022-08-03T06:37:48;5.70;;;5.20;;
35056;SDS011;21241;51.828;19.574;2022-08-03T06:40:18;5.70;;;5.20;;
35056;SDS011;21241;51.828;19.574;2022-08-03T06:42:50;6.00;;;5.60;;
35056;SDS011;21241;51.828;19.574;2022-08-03T06:45:18;5.70;;;5.20;;
35056;SDS011;21241;51.828;19.574;2022-08-03T06:47:46;6.40;;;5.20;;
35056;SDS011;21241;51.828;19.574;2022-08-03T06:50:14;5.80;;;5.10;;
35056;SDS011;21241;51.828;19.574;2022-08-03T06:52:44;5.10;;;4.70;;
35056;SDS011;21241;51.828;19.574;2022-08-03T06:55:12;5.40;;;4.80;;
35056;SDS011;21241;51.828;19.574;2022-08-03T06:57:40;5.20;;;4.80;;
35056;SDS011;21241;51.828;19.574;2022-08-03T07:00:08;6.20;;;5.60;;
35056;SDS011;21241;51.828;19.574;2022-08-03T07:02:39;5.20;;;4.80;;
35056;SDS011;21241;51.828;19.574;2022-08-03T07:05:07;6.00;;;5.50;;
35056;SDS011;21241;51.828;19.574;2022-08-03T07:07:36;5.70;;;5.20;;
35056;SDS011;21241;51.828;19.574;2022-08-03T07:10:06;5.60;;;5.10;;
35056;SDS011;21241;51.828;19.574;2022-08-03T07:12:34;6.40;;;5.40;;
35056;SDS011;21241;51.828;19.574;2022-08-03T07:15:03;5.80;;;5.00;;
35056;SDS011;21241;51.828;19.574;2022-08-03T07:17:32;6.70;;;5.30;;
35056;SDS011;21241;51.828;19.574;2022-08-03T07:20:02;5.60;;;4.70;;
35056;SDS011;21241;51.828;19.574;2022-08-03T07:22:32;5.70;;;5.30;;
35056;SDS011;21241;51.828;19.574;2022-08-03T07:25:02;5.10;;;4.60;;
35056;SDS011;21241;51.828;19.574;2022-08-03T07:27:32;5.30;;;5.00;;
35056;SDS011;21241;51.828;19.574;2022-08-03T07:30:00;4.80;;;4.40;;
35056;SDS011;21241;51.828;19.574;2022-08-03T07:32:27;6.30;;;5.70;;
35056;SDS011;21241;51.828;19.574;2022-08-03T07:34:58;5.80;;;5.30;;
35056;SDS011;21241;51.828;19.574;2022-08-03T07:37:28;5.50;;;4.80;;
35056;SDS011;21241;51.828;19.574;2022-08-03T07:39:56;5.20;;;4.70;;
35056;SDS011;21241;51.828;19.574;2022-08-03T07:42:25;5.20;;;4.80;;
35056;SDS011;21241;51.828;19.574;2022-08-03T07:44:56;5.10;;;4.80;;
35056;SDS011;21241;51.828;19.574;2022-08-03T07:47:26;4.90;;;4.60;;
35056;SDS011;21241;51.828;19.574;2022-08-03T07:50:03;6.20;;;5.00;;
35056;SDS011;21241;51.828;19.574;2022-08-03T07:52:35;5.00;;;4.50;;
35056;SDS011;21241;51.828;19.574;2022-08-03T07:55:21;5.40;;;5.00;;
35056;SDS011;21241;51.828;19.574;2022-08-03T07:58:04;6.10;;;5.60;;
35056;SDS011;21241;51.828;19.574;2022-08-03T08:00:50;6.30;;;5.80;;
35056;SDS011;21241;51.828;19.574;2022-08-03T08:03:19;7.00;;;6.50;;
35056;SDS011;21241;51.828;19.574;2022-08-03T08:05:48;7.80;;;7.10;;
35056;SDS011;21241;51.828;19.574;2022-08-03T08:08:16;5.50;;;5.00;;
35056;SDS011;21241;51.828;19.574;2022-08-03T08:10:43;6.10;;;5.80;;
35056;SDS011;21241;51.828;19.574;2022-08-03T08:13:25;5.30;;;4.90;;
35056;SDS011;21241;51.828;19.574;2022-08-03T08:15:52;5.00;;;4.60;;
35056;SDS011;21241;51.828;19.574;2022-08-03T08:18:20;5.30;;;4.90;;
35056;SDS011;21241;51.828;19.574;2022-08-03T08:20:48;5.70;;;4.90;;
35056;SDS011;21241;51.828;19.574;2022-08-03T08:23:16;4.60;;;4.30;;
35056;SDS011;21241;51.828;19.574;2022-08-03T08:26:09;5.10;;;4.70;;
35056;SDS011;21241;51.828;19.574;2022-08-03T08:28:37;5.50;;;4.90;;
35056;SDS011;21241;51.828;19.574;2022-08-03T08:31:10;4.90;;;4.60;;
35056;SDS011;21241;51.828;19.574;2022-08-03T08:33:45;6.30;;;5.80;;
35056;SDS011;21241;51.828;19.574;2022-08-03T08:36:31;6.10;;;5.70;;
35056;SDS011;21241;51.828;19.574;2022-08-03T08:39:02;6.80;;;6.20;;
35056;SDS011;21241;51.828;19.574;2022-08-03T08:41:30;6.40;;;6.00;;
35056;SDS011;21241;51.828;19.574;2022-08-03T08:44:01;6.80;;;6.10;;
35056;SDS011;21241;51.828;19.574;2022-08-03T08:46:31;6.60;;;6.10;;
35056;SDS011;21241;51.828;19.574;2022-08-03T08:48:59;6.60;;;6.20;;
35056;SDS011;21241;51.828;19.574;2022-08-03T08:51:33;6.80;;;6.30;;
35056;SDS011;21241;51.828;19.574;2022-08-03T08:54:24;6.80;;;6.40;;
35056;SDS011;21241;51.828;19.574;2022-08-03T08:56:52;7.50;;;7.00;;
35056;SDS011;21241;51.828;19.574;2022-08-03T08:59:23;7.50;;;7.00;;
35056;SDS011;21241;51.828;19.574;2022-08-03T09:01:55;7.80;;;7.20;;
35056;SDS011;21241;51.828;19.574;2022-08-03T09:04:23;7.90;;;7.30;;
35056;SDS011;21241;51.828;19.574;2022-08-03T09:06:51;8.10;;;7.60;;
35056;SDS011;21241;51.828;19.574;2022-08-03T09:09:39;7.50;;;7.00;;
35056;SDS011;21241;51.828;19.574;2022-08-03T09:12:26;10.70;;;9.90;;
35056;SDS011;21241;51.828;19.574;2022-08-03T09:17:46;8.80;;;8.20;;
35056;SDS011;21241;51.828;19.574;2022-08-03T09:20:18;8.60;;;8.00;;
35056;SDS011;21241;51.828;19.574;2022-08-03T09:23:04;8.10;;;7.60;;
35056;SDS011;21241;51.828;19.574;2022-08-03T09:25:57;8.00;;;7.50;;
35056;SDS011;21241;51.828;19.574;2022-08-03T09:28:32;7.80;;;7.30;;
35056;SDS011;21241;51.828;19.574;2022-08-03T09:31:31;8.10;;;7.70;;
35056;SDS011;21241;51.828;19.574;2022-08-03T09:34:03;9.00;;;8.50;;
35056;SDS011;21241;51.828;19.574;2022-08-03T09:36:40;8.20;;;7.30;;
35056;SDS011;21241;51.828;19.574;2022-08-03T09:39:11;8.90;;;8.20;;
35056;SDS011;21241;51.828;19.574;2022-08-03T09:41:44;8.20;;;7.70;;
35056;SDS011;21241;51.828;19.574;2022-08-03T09:44:13;8.20;;;7.80;;
35056;SDS011;21241;51.828;19.574;2022-08-03T09:46:53;7.80;;;7.30;;
35056;SDS011;21241;51.828;19.574;2022-08-03T09:49:22;8.30;;;7.80;;
35056;SDS011;21241;51.828;19.574;2022-08-03T09:51:51;9.70;;;8.90;;
35056;SDS011;21241;51.828;19.574;2022-08-03T09:54:40;8.50;;;7.80;;
35056;SDS011;21241;51.828;19.574;2022-08-03T09:57:21;8.50;;;7.80;;
35056;SDS011;21241;51.828;19.574;2022-08-03T09:59:52;8.30;;;7.60;;
35056;SDS011;21241;51.828;19.574;2022-08-03T10:02:39;8.80;;;8.30;;
35056;SDS011;21241;51.828;19.574;2022-08-03T10:05:08;8.40;;;7.90;;
35056;SDS011;21241;51.828;19.574;2022-08-03T10:07:47;8.40;;;7.90;;
35056;SDS011;21241;51.828;19.574;2022-08-03T10:10:16;8.10;;;7.60;;
35056;SDS011;21241;51.828;19.574;2022-08-03T10:12:58;8.20;;;7.60;;
35056;SDS011;21241;51.828;19.574;2022-08-03T10:15:26;8.80;;;8.30;;
35056;SDS011;21241;51.828;19.574;2022-08-03T10:18:14;8.20;;;7.40;;
35056;SDS011;21241;51.828;19.574;2022-08-03T10:20:44;8.00;;;7.40;;
35056;SDS011;21241;51.828;19.574;2022-08-03T10:23:16;8.10;;;7.50;;
35056;SDS011;21241;51.828;19.574;2022-08-03T10:25:45;8.60;;;7.90;;
35056;SDS011;21241;51.828;19.574;2022-08-03T10:28:15;9.30;;;8.60;;
35056;SDS011;21241;51.828;19.574;2022-08-03T10:30:47;9.20;;;8.40;;
35056;SDS011;21241;51.828;19.574;2022-08-03T10:33:20;8.90;;;8.20;;
35056;SDS011;21241;51.828;19.574;2022-08-03T10:36:10;8.20;;;7.70;;
35056;SDS011;21241;51.828;19.574;2022-08-03T10:38:42;8.60;;;8.00;;
35056;SDS011;21241;51.828;19.574;2022-08-03T10:41:14;8.60;;;8.00;;
35056;SDS011;21241;51.828;19.574;2022-08-03T10:43:49;8.60;;;8.10;;
35056;SDS011;21241;51.828;19.574;2022-08-03T10:46:18;8.70;;;8.10;;
35056;SDS011;21241;51.828;19.574;2022-08-03T10:48:47;7.80;;;7.30;;
35056;SDS011;21241;51.828;19.574;2022-08-03T10:51:16;7.80;;;7.40;;
35056;SDS011;21241;51.828;19.574;2022-08-03T10:53:45;8.70;;;8.10;;
35056;SDS011;21241;51.828;19.574;2022-08-03T10:59:18;8.50;;;7.70;;
35056;SDS011;21241;51.828;19.574;2022-08-03T11:02:00;9.40;;;8.50;;
35056;SDS011;21241;51.828;19.574;2022-08-03T11:04:28;9.00;;;8.30;;
35056;SDS011;21241;51.828;19.574;2022-08-03T11:09:45;8.10;;;7.50;;
35056;SDS011;21241;51.828;19.574;2022-08-03T11:12:21;8.00;;;7.40;;
35056;SDS011;21241;51.828;19.574;2022-08-03T11:15:00;9.20;;;8.50;;
35056;SDS011;21241;51.828;19.574;2022-08-03T11:17:30;9.30;;;8.60;;
35056;SDS011;21241;51.828;19.574;2022-08-03T11:20:13;9.00;;;8.40;;
35056;SDS011;21241;51.828;19.574;2022-08-03T11:22:47;8.50;;;7.90;;
35056;SDS011;21241;51.828;19.574;2022-08-03T11:25:17;8.50;;;8.00;;
35056;SDS011;21241;51.828;19.574;2022-08-03T11:28:23;10.50;;;9.60;;
35056;SDS011;21241;51.828;19.574;2022-08-03T11:30:53;9.30;;;8.70;;
35056;SDS011;21241;51.828;19.574;2022-08-03T11:33:30;9.30;;;8.70;;
35056;SDS011;21241;51.828;19.574;2022-08-03T11:35:59;8.40;;;7.90;;
35056;SDS011;21241;51.828;19.574;2022-08-03T11:38:27;9.80;;;9.20;;
35056;SDS011;21241;51.828;19.574;2022-08-03T11:40:55;8.60;;;8.10;;
35056;SDS011;21241;51.828;19.574;2022-08-03T11:51:02;9.10;;;8.50;;
35056;SDS011;21241;51.828;19.574;2022-08-03T11:53:31;8.50;;;8.00;;
35056;SDS011;21241;51.828;19.574;2022-08-03T11:56:08;9.00;;;8.40;;
35056;SDS011;21241;51.828;19.574;2022-08-03T11:58:50;8.30;;;7.80;;
35056;SDS011;21241;51.828;19.574;2022-08-03T12:01:40;9.00;;;8.40;;
35056;SDS011;21241;51.828;19.574;2022-08-03T12:04:08;9.70;;;9.10;;
35056;SDS011;21241;51.828;19.574;2022-08-03T12:06:37;8.30;;;7.80;;
35056;SDS011;21241;51.828;19.574;2022-08-03T12:09:21;8.00;;;7.50;;
35056;SDS011;21241;51.828;19.574;2022-08-03T12:11:49;9.30;;;8.70;;
35056;SDS011;21241;51.828;19.574;2022-08-03T12:14:27;8.70;;;8.10;;
35056;SDS011;21241;51.828;19.574;2022-08-03T12:17:18;8.30;;;7.80;;
35056;SDS011;21241;51.828;19.574;2022-08-03T12:19:47;9.00;;;8.40;;
35056;SDS011;21241;51.828;19.574;2022-08-03T12:22:15;8.70;;;8.20;;
35056;SDS011;21241;51.828;19.574;2022-08-03T12:24:43;8.70;;;8.00;;
35056;SDS011;21241;51.828;19.574;2022-08-03T12:27:21;8.50;;;8.00;;
35056;SDS011;21241;51.828;19.574;2022-08-03T12:29:52;8.70;;;8.00;;
35056;SDS011;21241;51.828;19.574;2022-08-03T12:32:26;8.80;;;8.10;;
35056;SDS011;21241;51.828;19.574;2022-08-03T12:34:55;8.10;;;7.60;;
35056;SDS011;21241;51.828;19.574;2022-08-03T12:37:28;8.20;;;7.70;;
35056;SDS011;21241;51.828;19.574;2022-08-03T12:39:58;10.90;;;9.80;;
35056;SDS011;21241;51.828;19.574;2022-08-03T12:42:37;8.80;;;8.30;;
35056;SDS011;21241;51.828;19.574;2022-08-03T12:45:22;8.60;;;8.00;;
35056;SDS011;21241;51.828;19.574;2022-08-03T12:50:33;9.30;;;8.70;;
35056;SDS011;21241;51.828;19.574;2022-08-03T12:53:03;8.40;;;7.90;;
35056;SDS011;21241;51.828;19.574;2022-08-03T12:55:36;8.60;;;8.10;;
35056;SDS011;21241;51.828;19.574;2022-08-03T12:58:28;9.00;;;8.30;;
35056;SDS011;21241;51.828;19.574;2022-08-03T13:01:03;8.40;;;7.70;;
35056;SDS011;21241;51.828;19.574;2022-08-03T13:03:46;8.90;;;8.40;;
35056;SDS011;21241;51.828;19.574;2022-08-03T13:06:17;8.10;;;7.60;;
35056;SDS011;21241;51.828;19.574;2022-08-03T13:08:46;8.70;;;8.00;;
35056;SDS011;21241;51.828;19.574;2022-08-03T13:11:22;8.10;;;7.50;;
35056;SDS011;21241;51.828;19.574;2022-08-03T13:14:11;8.00;;;7.50;;
35056;SDS011;21241;51.828;19.574;2022-08-03T13:16:47;8.40;;;7.80;;
35056;SDS011;21241;51.828;19.574;2022-08-03T13:19:16;8.40;;;7.80;;
35056;SDS011;21241;51.828;19.574;2022-08-03T13:21:43;9.20;;;8.50;;
35056;SDS011;21241;51.828;19.574;2022-08-03T13:24:31;9.10;;;8.60;;
35056;SDS011;21241;51.828;19.574;2022-08-03T13:27:00;9.10;;;8.60;;
35056;SDS011;21241;51.828;19.574;2022-08-03T13:29:49;9.60;;;9.00;;
35056;SDS011;21241;51.828;19.574;2022-08-03T13:32:17;9.10;;;8.40;;
35056;SDS011;21241;51.828;19.574;2022-08-03T13:34:45;8.60;;;8.10;;
35056;SDS011;21241;51.828;19.574;2022-08-03T13:37:13;9.30;;;8.50;;
35056;SDS011;21241;51.828;19.574;2022-08-03T13:39:41;8.80;;;8.20;;
35056;SDS011;21241;51.828;19.574;2022-08-03T13:42:30;8.90;;;8.30;;
35056;SDS011;21241;51.828;19.574;2022-08-03T13:44:59;8.60;;;8.10;;
35056;SDS011;21241;51.828;19.574;2022-08-03T13:47:26;8.70;;;8.10;;
35056;SDS011;21241;51.828;19.574;2022-08-03T13:49:54;8.40;;;7.80;;
35056;SDS011;21241;51.828;19.574;2022-08-03T13:52:29;9.70;;;9.00;;
35056;SDS011;21241;51.828;19.574;2022-08-03T13:54:58;8.90;;;8.30;;
35056;SDS011;21241;51.828;19.574;2022-08-03T13:57:27;8.80;;;8.20;;
35056;SDS011;21241;51.828;19.574;2022-08-03T14:00:15;8.90;;;8.30;;
35056;SDS011;21241;51.828;19.574;2022-08-03T14:02:56;9.20;;;8.60;;
35056;SDS011;21241;51.828;19.574;2022-08-03T14:05:41;8.80;;;8.30;;
35056;SDS011;21241;51.828;19.574;2022-08-03T14:08:10;10.40;;;8.30;;
35056;SDS011;21241;51.828;19.574;2022-08-03T14:10:40;8.40;;;7.90;;
35056;SDS011;21241;51.828;19.574;2022-08-03T14:13:12;8.30;;;7.80;;
35056;SDS011;21241;51.828;19.574;2022-08-03T14:15:47;8.30;;;7.80;;
35056;SDS011;21241;51.828;19.574;2022-08-03T14:18:17;8.10;;;7.50;;
35056;SDS011;21241;51.828;19.574;2022-08-03T14:21:00;8.70;;;8.10;;
35056;SDS011;21241;51.828;19.574;2022-08-03T14:23:33;8.00;;;7.50;;
35056;SDS011;21241;51.828;19.574;2022-08-03T14:26:01;8.50;;;8.00;;
35056;SDS011;21241;51.828;19.574;2022-08-03T14:28:29;9.20;;;8.60;;
35056;SDS011;21241;51.828;19.574;2022-08-03T14:30:57;10.10;;;9.50;;
35056;SDS011;21241;51.828;19.574;2022-08-03T14:33:25;9.60;;;9.00;;
35056;SDS011;21241;51.828;19.574;2022-08-03T14:35:54;10.30;;;9.60;;
35056;SDS011;21241;51.828;19.574;2022-08-03T14:38:23;9.00;;;8.50;;
35056;SDS011;21241;51.828;19.574;2022-08-03T14:40:51;10.40;;;9.60;;
35056;SDS011;21241;51.828;19.574;2022-08-03T14:43:19;10.20;;;9.50;;
35056;SDS011;21241;51.828;19.574;2022-08-03T14:45:50;9.60;;;8.90;;
35056;SDS011;21241;51.828;19.574;2022-08-03T14:48:20;10.00;;;9.40;;
35056;SDS011;21241;51.828;19.574;2022-08-03T14:51:08;10.30;;;9.70;;
35056;SDS011;21241;51.828;19.574;2022-08-03T14:53:36;10.40;;;9.60;;
35056;SDS011;21241;51.828;19.574;2022-08-03T14:56:04;10.00;;;9.50;;
35056;SDS011;21241;51.828;19.574;2022-08-03T14:58:37;10.30;;;9.40;;
35056;SDS011;21241;51.828;19.574;2022-08-03T15:01:05;10.00;;;9.40;;
35056;SDS011;21241;51.828;19.574;2022-08-03T15:03:53;9.10;;;8.50;;
35056;SDS011;21241;51.828;19.574;2022-08-03T15:06:21;9.60;;;9.00;;
35056;SDS011;21241;51.828;19.574;2022-08-03T15:08:49;9.70;;;9.00;;
35056;SDS011;21241;51.828;19.574;2022-08-03T15:11:36;9.80;;;9.20;;
35056;SDS011;21241;51.828;19.574;2022-08-03T15:14:05;10.10;;;9.60;;
35056;SDS011;21241;51.828;19.574;2022-08-03T15:16:36;10.60;;;9.90;;
35056;SDS011;21241;51.828;19.574;2022-08-03T15:19:04;10.50;;;9.80;;
35056;SDS011;21241;51.828;19.574;2022-08-03T15:21:52;10.20;;;9.50;;
35056;SDS011;21241;51.828;19.574;2022-08-03T15:24:20;10.40;;;9.80;;
35056;SDS011;21241;51.828;19.574;2022-08-03T15:26:49;15.70;;;14.80;;
35056;SDS011;21241;51.828;19.574;2022-08-03T15:29:18;14.90;;;14.00;;
35056;SDS011;21241;51.828;19.574;2022-08-03T15:32:06;15.10;;;14.00;;
35056;SDS011;21241;51.828;19.574;2022-08-03T15:34:36;16.80;;;15.70;;